createdAt,value
2022-09-11T00:01:49.212Z,15.30
2022-09-11T00:04:16.882Z,15.40
2022-09-11T00:06:44.535Z,15.40
2022-09-11T00:09:12.378Z,15.40
2022-09-11T00:11:42.802Z,15.40
2022-09-11T00:14:14.341Z,15.40
2022-09-11T00:16:45.874Z,15.40
2022-09-11T00:19:20.252Z,15.40
2022-09-11T00:21:50.814Z,15.40
2022-09-11T00:24:18.406Z,15.30
2022-09-11T00:26:48.238Z,15.30
2022-09-11T00:29:19.328Z,15.30
2022-09-11T00:31:49.488Z,15.30
2022-09-11T00:34:17.587Z,15.30
2022-09-11T00:36:45.363Z,15.30
2022-09-11T00:39:14.535Z,15.40
2022-09-11T00:41:46.499Z,15.40
2022-09-11T00:44:18.097Z,15.40
2022-09-11T00:46:55.933Z,15.50
2022-09-11T00:49:36.998Z,15.50
2022-09-11T00:52:27.433Z,15.50
2022-09-11T00:55:19.025Z,15.50
2022-09-11T00:57:53.340Z,15.50
2022-09-11T01:00:22.455Z,15.50
2022-09-11T01:02:53.761Z,15.50
2022-09-11T01:05:24.872Z,15.50
2022-09-11T01:07:55.403Z,15.40
2022-09-11T01:10:41.031Z,15.40
2022-09-11T01:13:33.284Z,15.40
2022-09-11T01:16:22.692Z,15.40
2022-09-11T01:19:44.347Z,15.30
2022-09-11T01:22:34.500Z,15.30
2022-09-11T01:25:30.434Z,15.20
2022-09-11T01:28:01.267Z,15.20
2022-09-11T01:30:47.699Z,15.20
2022-09-11T01:33:28.497Z,15.20
2022-09-11T01:36:04.279Z,15.10
2022-09-11T01:38:59.082Z,15.10
2022-09-11T01:41:48.915Z,15.10
2022-09-11T01:44:30.191Z,15.00
2022-09-11T01:46:59.361Z,15.00
2022-09-11T01:49:40.658Z,15.00
2022-09-11T01:52:26.512Z,14.90
2022-09-11T01:55:03.163Z,14.90
2022-09-11T01:57:40.027Z,14.80
2022-09-11T02:00:11.935Z,14.80
2022-09-11T02:03:11.176Z,14.70
2022-09-11T02:06:20.915Z,14.70
2022-09-11T02:08:59.023Z,14.60
2022-09-11T02:11:34.281Z,14.50
2022-09-11T02:14:18.426Z,14.60
2022-09-11T02:17:14.128Z,14.50
2022-09-11T02:19:42.434Z,14.40
2022-09-11T02:22:10.961Z,14.30
2022-09-11T02:24:39.611Z,14.30
2022-09-11T02:27:14.650Z,14.30
2022-09-11T02:29:43.090Z,14.20
2022-09-11T02:32:13.780Z,14.20
2022-09-11T02:34:46.834Z,14.20
2022-09-11T02:37:28.139Z,14.20
2022-09-11T02:40:07.622Z,14.20
2022-09-11T02:43:07.155Z,14.20
2022-09-11T02:45:59.944Z,14.20
2022-09-11T02:48:44.354Z,14.30
2022-09-11T02:51:42.734Z,14.30
2022-09-11T02:54:49.644Z,14.40
2022-09-11T02:57:48.369Z,14.40
2022-09-11T03:00:16.640Z,14.40
2022-09-11T03:02:45.744Z,14.30
2022-09-11T03:10:12.218Z,14.30
2022-09-11T03:12:40.352Z,14.30
2022-09-11T03:15:11.484Z,14.40
2022-09-11T03:17:39.220Z,14.50
2022-09-11T03:20:07.827Z,14.60
2022-09-11T03:22:35.288Z,14.70
2022-09-11T03:25:05.187Z,14.70
2022-09-11T03:27:33.068Z,14.70
2022-09-11T03:30:01.084Z,14.70
2022-09-11T03:32:28.900Z,14.80
2022-09-11T03:34:58.882Z,14.80
2022-09-11T03:37:27.324Z,14.80
2022-09-11T03:39:58.374Z,14.80
2022-09-11T03:42:25.993Z,14.80
2022-09-11T03:44:53.612Z,14.80
2022-09-11T03:47:22.486Z,14.90
2022-09-11T03:49:49.998Z,14.90
2022-09-11T03:52:17.723Z,14.90
2022-09-11T03:54:47.885Z,14.90
2022-09-11T03:57:15.642Z,14.90
2022-09-11T03:59:43.365Z,14.90
2022-09-11T04:02:11.023Z,14.90
2022-09-11T04:04:38.764Z,14.90
2022-09-11T04:07:06.467Z,15.00
2022-09-11T04:09:34.057Z,15.00
2022-09-11T04:12:03.500Z,15.00
2022-09-11T04:14:30.893Z,15.00
2022-09-11T04:16:59.879Z,15.00
2022-09-11T04:19:29.696Z,15.00
2022-09-11T04:21:57.645Z,15.00
2022-09-11T04:24:25.514Z,15.00
2022-09-11T04:26:57.358Z,15.00
2022-09-11T04:29:29.289Z,15.00
2022-09-11T04:31:59.312Z,15.00
2022-09-11T04:34:36.021Z,15.00
2022-09-11T04:37:06.367Z,15.00
2022-09-11T04:39:36.032Z,14.90
2022-09-11T04:42:05.260Z,14.90
2022-09-11T04:44:34.965Z,14.90
2022-09-11T04:47:05.611Z,14.80
2022-09-11T04:49:33.958Z,14.80
2022-09-11T04:52:06.402Z,14.80
2022-09-11T04:54:35.964Z,14.80
2022-09-11T04:57:11.042Z,14.80
2022-09-11T04:59:42.567Z,14.90
2022-09-11T05:02:16.693Z,14.90
2022-09-11T05:04:50.541Z,14.90
2022-09-11T05:07:19.510Z,14.90
2022-09-11T05:09:50.247Z,14.90
2022-09-11T05:14:49.112Z,14.90
2022-09-11T05:17:17.516Z,14.80
2022-09-11T05:19:45.542Z,14.80
2022-09-11T05:22:16.823Z,14.80
2022-09-11T05:24:54.955Z,14.80
2022-09-11T05:27:22.908Z,14.70
2022-09-11T05:29:50.638Z,14.70
2022-09-11T05:32:18.340Z,14.60
2022-09-11T05:34:46.217Z,14.70
2022-09-11T05:37:16.708Z,14.70
2022-09-11T05:39:46.292Z,14.70
2022-09-11T05:42:17.996Z,14.70
2022-09-11T05:44:52.218Z,14.80
2022-09-11T05:47:21.979Z,14.80
2022-09-11T05:49:54.241Z,14.80
2022-09-11T05:52:22.337Z,14.90
2022-09-11T05:54:54.106Z,14.90
2022-09-11T05:57:21.997Z,14.90
2022-09-11T05:59:52.722Z,14.80
2022-09-11T06:02:21.464Z,14.70
2022-09-11T06:04:56.746Z,14.70
2022-09-11T06:07:27.103Z,14.70
2022-09-11T06:09:58.659Z,14.70
2022-09-11T06:12:29.945Z,14.60
2022-09-11T06:14:59.802Z,14.60
2022-09-11T06:20:41.297Z,14.60
2022-09-11T06:23:16.864Z,14.60
2022-09-11T06:25:48.251Z,14.70
2022-09-11T06:28:23.704Z,14.70
2022-09-11T06:30:58.958Z,14.80
2022-09-11T06:33:27.596Z,14.80
2022-09-11T06:36:05.367Z,14.90
2022-09-11T06:38:38.405Z,14.90
2022-09-11T06:41:12.201Z,15.00
2022-09-11T06:43:40.459Z,15.10
2022-09-11T06:46:13.895Z,15.10
2022-09-11T06:48:43.221Z,15.10
2022-09-11T06:51:18.593Z,15.10
2022-09-11T06:53:47.617Z,15.00
2022-09-11T06:56:18.948Z,15.00
2022-09-11T06:58:47.315Z,15.10
2022-09-11T07:01:20.927Z,15.00
2022-09-11T07:03:55.642Z,15.00
2022-09-11T07:06:27.634Z,15.00
2022-09-11T07:09:03.025Z,15.10
2022-09-11T07:11:46.142Z,15.10
2022-09-11T07:14:24.527Z,15.10
2022-09-11T07:17:01.627Z,15.10
2022-09-11T07:19:29.579Z,15.20
2022-09-11T07:26:46.344Z,15.30
2022-09-11T07:29:20.129Z,15.50
2022-09-11T07:31:50.837Z,15.50
2022-09-11T07:34:19.766Z,15.60
2022-09-11T07:36:52.100Z,15.60
2022-09-11T07:39:21.758Z,15.60
2022-09-11T07:41:56.179Z,15.60
2022-09-11T07:44:28.624Z,15.60
2022-09-11T07:46:58.606Z,15.70
2022-09-11T07:49:28.785Z,15.70
2022-09-11T07:51:56.486Z,15.70
2022-09-11T07:54:37.487Z,15.60
2022-09-11T07:57:12.096Z,15.60
2022-09-11T07:59:47.697Z,15.50
2022-09-11T08:02:18.360Z,15.40
2022-09-11T08:04:46.011Z,15.40
2022-09-11T08:07:15.970Z,15.30
2022-09-11T08:09:45.566Z,15.30
2022-09-11T08:12:14.397Z,15.30
2022-09-11T08:14:43.013Z,15.30
2022-09-11T08:17:24.594Z,15.30
2022-09-11T08:19:54.680Z,15.40
2022-09-11T08:22:26.418Z,15.40
2022-09-11T08:24:58.993Z,15.40
2022-09-11T08:27:32.092Z,15.50
2022-09-11T08:30:04.421Z,15.50
2022-09-11T08:32:36.102Z,15.50
2022-09-11T08:35:07.017Z,15.60
2022-09-11T08:37:41.976Z,15.60
2022-09-11T08:40:13.713Z,15.70
2022-09-11T08:42:45.623Z,15.70
2022-09-11T08:45:21.237Z,15.80
2022-09-11T08:47:54.657Z,15.80
2022-09-11T08:50:43.519Z,15.80
2022-09-11T08:53:21.570Z,15.80
2022-09-11T08:56:02.654Z,15.90
2022-09-11T09:02:30.055Z,15.90
2022-09-11T09:05:34.600Z,15.90
2022-09-11T09:08:47.157Z,15.90
2022-09-11T09:11:43.347Z,16.00
2022-09-11T09:15:12.100Z,16.10
2022-09-11T09:17:54.709Z,16.10
2022-09-11T09:21:01.112Z,16.10
2022-09-11T09:23:39.056Z,16.10
2022-09-11T09:26:22.133Z,16.20
2022-09-11T09:28:57.071Z,16.30
2022-09-11T09:31:31.280Z,16.30
2022-09-11T09:34:24.908Z,16.50
2022-09-11T09:37:27.321Z,16.50
2022-09-11T09:39:57.012Z,16.50
2022-09-11T09:43:30.907Z,16.40
2022-09-11T09:46:47.491Z,16.40
2022-09-11T09:49:31.953Z,16.40
2022-09-11T09:52:18.388Z,16.40
2022-09-11T09:55:12.737Z,16.30
2022-09-11T09:57:40.342Z,16.30
2022-09-11T10:00:11.779Z,16.20
2022-09-11T10:02:55.968Z,16.20
2022-09-11T10:05:27.439Z,16.20
2022-09-11T10:08:04.566Z,16.20
2022-09-11T10:10:44.127Z,16.10
2022-09-11T10:13:30.713Z,16.20
2022-09-11T10:16:21.042Z,16.20
2022-09-11T10:19:06.204Z,16.20
2022-09-11T10:21:42.619Z,16.30
2022-09-11T10:24:46.303Z,16.50
2022-09-11T10:27:29.580Z,16.80
2022-09-11T10:30:11.760Z,17.10
2022-09-11T10:36:18.775Z,18.10
2022-09-11T10:42:38.031Z,19.20
2022-09-11T10:46:18.668Z,20.00
2022-09-11T10:54:23.445Z,22.20
2022-09-11T11:00:42.488Z,25.10
2022-09-11T11:08:18.274Z,27.30
2022-09-11T11:11:20.057Z,27.50
2022-09-11T11:14:18.783Z,27.80
2022-09-11T11:17:17.795Z,28.40
2022-09-11T11:20:33.191Z,28.70
2022-09-11T11:23:21.212Z,28.70
2022-09-11T11:26:28.905Z,29.20
2022-09-11T11:29:58.020Z,30.50
2022-09-11T11:45:52.729Z,25.40
2022-09-11T11:49:10.108Z,25.80
2022-09-11T11:52:37.526Z,26.70
2022-09-11T11:55:43.315Z,27.90
2022-09-11T11:59:12.357Z,28.50
2022-09-11T12:02:46.897Z,29.50
2022-09-11T12:06:20.716Z,30.80
2022-09-11T12:09:02.757Z,30.20
2022-09-11T12:11:35.387Z,28.80
2022-09-11T12:14:04.062Z,27.60
2022-09-11T12:16:36.743Z,26.80
2022-09-11T12:19:25.827Z,26.50
2022-09-11T12:21:56.441Z,27.00
2022-09-11T12:26:05.838Z,27.10
2022-09-11T12:28:41.112Z,26.70
2022-09-11T12:33:21.533Z,27.90
2022-09-11T12:35:05.725Z,29.20
2022-09-11T12:37:42.912Z,30.90
2022-09-11T12:40:27.369Z,32.10
2022-09-11T12:43:46.391Z,33.20
2022-09-11T12:46:31.084Z,34.10
2022-09-11T12:49:54.927Z,34.50
2022-09-11T12:56:05.073Z,33.40
2022-09-11T13:02:25.121Z,33.30
2022-09-11T13:08:38.639Z,32.30
2022-09-11T13:11:40.658Z,32.60
2022-09-11T13:15:01.164Z,32.80
2022-09-11T13:18:02.022Z,33.30
2022-09-11T13:25:22.393Z,32.60
2022-09-11T13:28:08.418Z,32.80
2022-09-11T13:30:53.893Z,32.00
2022-09-11T13:33:31.148Z,32.20
2022-09-11T13:38:36.821Z,32.00
2022-09-11T13:41:09.129Z,31.30
2022-09-11T13:44:04.149Z,31.00
2022-09-11T13:46:38.871Z,30.90
2022-09-11T13:49:12.856Z,30.90
2022-09-11T13:51:45.867Z,30.10
2022-09-11T13:55:21.573Z,29.70
2022-09-11T14:01:16.839Z,30.80
2022-09-11T14:04:04.828Z,30.20
2022-09-11T14:06:34.826Z,29.50
2022-09-11T14:09:48.306Z,29.70
2022-09-11T14:12:24.645Z,30.30
2022-09-11T14:15:20.690Z,30.40
2022-09-11T14:18:05.168Z,30.30
2022-09-11T14:21:02.503Z,30.60
2022-09-11T14:23:48.338Z,30.60
2022-09-11T14:26:20.445Z,30.70
2022-09-11T14:29:23.739Z,31.00
2022-09-11T14:32:02.368Z,31.20
2022-09-11T14:34:30.417Z,30.50
2022-09-11T14:37:35.445Z,29.50
2022-09-11T14:40:19.736Z,28.50
2022-09-11T14:42:48.358Z,27.80
2022-09-11T14:45:24.667Z,27.40
2022-09-11T14:48:06.177Z,27.40
2022-09-11T14:50:33.980Z,27.80
2022-09-11T14:53:08.934Z,27.60
2022-09-11T14:55:36.463Z,27.00
2022-09-11T14:58:04.169Z,26.60
2022-09-11T15:00:32.026Z,26.40
2022-09-11T15:03:01.082Z,26.20
2022-09-11T15:05:29.289Z,26.30
2022-09-11T15:07:58.351Z,26.50
2022-09-11T15:10:28.290Z,27.00
2022-09-11T15:12:58.858Z,27.40
2022-09-11T15:15:30.659Z,27.50
2022-09-11T15:17:58.258Z,27.60
2022-09-11T15:20:27.300Z,27.30
2022-09-11T15:23:20.686Z,26.70
2022-09-11T15:26:01.545Z,25.80
2022-09-11T15:28:39.225Z,25.20
2022-09-11T15:31:11.787Z,24.60
2022-09-11T15:33:39.629Z,24.20
2022-09-11T15:36:08.192Z,23.90
2022-09-11T15:38:35.525Z,23.60
2022-09-11T15:41:09.152Z,23.30
2022-09-11T15:43:39.480Z,23.10
2022-09-11T15:46:14.641Z,22.90
2022-09-11T15:48:42.390Z,22.90
2022-09-11T15:51:15.442Z,22.80
2022-09-11T15:53:44.823Z,22.80
2022-09-11T15:56:23.877Z,22.60
2022-09-11T15:58:53.644Z,22.40
2022-09-11T16:01:28.459Z,22.10
2022-09-11T16:04:03.182Z,21.80
2022-09-11T16:06:38.871Z,21.60
2022-09-11T16:09:23.553Z,21.40
2022-09-11T16:12:09.632Z,21.30
2022-09-11T16:14:38.589Z,21.20
2022-09-11T16:17:08.077Z,21.00
2022-09-11T16:19:36.224Z,21.00
2022-09-11T16:22:06.000Z,20.90
2022-09-11T16:24:59.641Z,20.80
2022-09-11T16:27:27.134Z,20.80
2022-09-11T16:30:42.134Z,20.80
2022-09-11T16:32:56.147Z,20.70
2022-09-11T16:35:23.700Z,20.70
2022-09-11T16:37:51.392Z,20.80
2022-09-11T16:40:20.819Z,20.80
2022-09-11T16:42:48.303Z,20.80
2022-09-11T16:45:15.708Z,20.70
2022-09-11T16:47:43.181Z,20.60
2022-09-11T16:50:11.907Z,20.50
2022-09-11T16:52:39.745Z,20.30
2022-09-11T16:55:29.963Z,20.20
2022-09-11T16:58:09.064Z,20.10
2022-09-11T17:00:40.497Z,19.90
2022-09-11T17:03:08.186Z,19.80
2022-09-11T17:05:36.234Z,19.60
2022-09-11T17:08:04.470Z,19.50
2022-09-11T17:10:32.254Z,19.40
2022-09-11T17:13:00.289Z,19.30
2022-09-11T17:15:28.625Z,19.20
2022-09-11T17:17:56.210Z,19.10
2022-09-11T17:20:23.840Z,19.00
2022-09-11T17:22:58.099Z,18.90
2022-09-11T17:25:28.097Z,18.80
2022-09-11T17:27:55.641Z,18.60
2022-09-11T17:30:23.128Z,18.50
2022-09-11T17:32:51.047Z,18.40
2022-09-11T17:35:18.477Z,18.30
2022-09-11T17:37:48.426Z,18.20
2022-09-11T17:40:18.828Z,18.00
2022-09-11T17:42:46.466Z,17.90
2022-09-11T17:45:14.069Z,17.80
2022-09-11T17:47:42.964Z,17.70
2022-09-11T17:50:11.055Z,17.60
2022-09-11T17:52:39.074Z,17.50
2022-09-11T17:55:07.686Z,17.50
2022-09-11T17:57:35.386Z,17.40
2022-09-11T18:00:05.027Z,17.40
2022-09-11T18:02:40.251Z,17.30
2022-09-11T18:05:08.064Z,17.30
2022-09-11T18:07:35.626Z,17.20
2022-09-11T18:10:04.144Z,17.20
2022-09-11T18:12:35.349Z,17.20
2022-09-11T18:15:02.813Z,17.10
2022-09-11T18:17:30.524Z,17.00
2022-09-11T18:19:57.851Z,16.90
2022-09-11T18:22:29.842Z,16.80
2022-09-11T18:24:59.892Z,16.70
2022-09-11T18:27:29.722Z,16.60
2022-09-11T18:29:57.398Z,16.50
2022-09-11T18:32:24.882Z,16.30
2022-09-11T18:34:52.303Z,16.20
2022-09-11T18:37:19.859Z,16.00
2022-09-11T18:39:48.622Z,15.90
2022-09-11T18:42:19.156Z,15.70
2022-09-11T18:44:46.603Z,15.60
2022-09-11T18:47:14.164Z,15.60
2022-09-11T18:49:41.580Z,15.40
2022-09-11T18:52:09.366Z,15.30
2022-09-11T18:54:37.646Z,15.20
2022-09-11T18:57:05.326Z,15.00
2022-09-11T18:59:32.833Z,14.90
2022-09-11T19:02:00.919Z,14.80
2022-09-11T19:04:28.558Z,14.70
2022-09-11T19:06:55.900Z,14.60
2022-09-11T19:09:23.315Z,14.50
2022-09-11T19:11:52.648Z,14.30
2022-09-11T19:14:20.169Z,14.20
2022-09-11T19:16:49.445Z,14.20
2022-09-11T19:19:16.836Z,14.10
2022-09-11T19:21:48.793Z,14.10
2022-09-11T19:24:16.321Z,14.10
2022-09-11T19:26:45.296Z,14.10
2022-09-11T19:29:15.982Z,14.10
2022-09-11T19:31:43.504Z,14.00
2022-09-11T19:34:12.805Z,14.00
2022-09-11T19:36:41.318Z,13.90
2022-09-11T19:39:10.254Z,13.90
2022-09-11T19:41:41.761Z,13.90
2022-09-11T19:44:13.239Z,13.90
2022-09-11T19:46:43.185Z,13.90
2022-09-11T19:49:11.380Z,13.80
2022-09-11T19:51:45.161Z,13.80
2022-09-11T19:56:44.495Z,13.70
2022-09-11T19:59:14.471Z,13.70
2022-09-11T20:01:44.165Z,13.50
2022-09-11T20:04:13.685Z,13.30
2022-09-11T20:06:41.150Z,13.20
2022-09-11T20:12:00.780Z,12.90
2022-09-11T20:14:33.231Z,12.70
2022-09-11T20:17:01.241Z,12.70
2022-09-11T20:19:29.010Z,12.70
2022-09-11T20:21:56.452Z,12.80
2022-09-11T20:24:23.974Z,12.80
2022-09-11T20:26:54.249Z,12.90
2022-09-11T20:29:21.870Z,12.60
2022-09-11T20:31:51.443Z,12.70
2022-09-11T20:34:19.908Z,12.50
2022-09-11T20:36:48.189Z,12.50
2022-09-11T20:39:16.692Z,12.60
2022-09-11T20:41:44.947Z,12.60
2022-09-11T20:44:12.628Z,12.70
2022-09-11T20:46:40.678Z,12.90
2022-09-11T20:49:08.306Z,12.70
2022-09-11T22:26:24.086Z,11.60
2022-09-11T22:28:52.554Z,11.50
2022-09-11T22:31:24.551Z,11.50
2022-09-11T22:33:53.964Z,11.50
2022-09-11T22:36:28.545Z,11.50
2022-09-11T22:38:56.874Z,11.40
2022-09-11T22:41:26.317Z,11.30
2022-09-11T22:43:54.464Z,11.20
2022-09-11T22:46:22.000Z,11.10
2022-09-11T22:48:49.970Z,11.10
2022-09-11T22:51:17.686Z,11.10
2022-09-11T22:53:45.481Z,11.10
2022-09-11T22:56:14.109Z,11.20
2022-09-11T22:58:42.096Z,11.20
2022-09-11T23:01:12.947Z,11.30
2022-09-11T23:03:40.886Z,11.30
2022-09-11T23:06:29.574Z,11.20
2022-09-11T23:08:57.628Z,11.20
2022-09-11T23:11:25.516Z,11.10
2022-09-11T23:13:53.110Z,11.00
2022-09-11T23:16:27.983Z,10.90
2022-09-11T23:18:59.066Z,10.80
2022-09-11T23:21:28.154Z,10.70
2022-09-11T23:23:58.149Z,10.60
2022-09-11T23:26:27.895Z,10.70
2022-09-11T23:28:55.771Z,10.70
2022-09-11T23:31:26.978Z,10.60
2022-09-11T23:33:58.187Z,10.70
2022-09-11T23:36:26.673Z,10.70
2022-09-11T23:38:54.410Z,10.70
2022-09-11T23:41:23.242Z,10.70
2022-09-11T23:43:51.521Z,10.70
2022-09-11T23:46:19.369Z,10.80
2022-09-11T23:48:47.174Z,10.80
2022-09-11T23:51:15.833Z,10.90
2022-09-11T23:53:45.303Z,11.00
2022-09-11T23:56:17.154Z,11.00
2022-09-11T23:58:47.997Z,11.10
